Main page
METAR-TAF:

METAR-TAF

Airports :

Federico García Lorca Airport

Granada, Spain

latitude: 37-11N, longitude: 003-47W, elevation: 567 m

Current weather observation

The report was made 26 minutes ago, at 05:30 UTC
Calm wind
Temperature 25°C
Humidity 50%
Pressure 1015 hPa
Visibility 10 km or more
no clouds below 1500 m and no cumulonimbus

METAR: LEGR 130530Z 00000KT CAVOK 25/14 Q1015

Time: 07:56 (05:56 UTC)

Forecast

The report was made 6 hours and 56 minutes ago, at 23:00 UTC
Forecast valid from 13 at 00 UTC to 13 at 24 UTC
Wind 10 kt from the South
Visibility 10 km or more
no clouds below 1500 m and no cumulonimbus
Becoming
from 13 at 01 UTC to 13 at 03 UTC
Wind 2 kt from variable directions

TAF: LEGR 122300Z 1300/1324 18010KT CAVOK TX42/1315Z TN21/1305Z BECMG 1301/1303 VRB02KT

Weather observations and forecasts of more than 4000 airports (METAR and TAF reports).

The available stations are represented by yellow and red dots on the map.

Hover mouse over dot to see the name of the station.

Then click to see weather observations and forecasts.

To change the map : click on the green buttons with a black cross to zoom in, on the green button with a dash to zoom out, or on the green arrows for adjacent maps.


METAR-TAF: